sensor_id;sensor_type;location;lat;lon;timestamp;temperature;humidity
29803;DHT22;16702;50.898;4.662;2022-08-04T00:01:51;27.70;97.10
29803;DHT22;16702;50.898;4.662;2022-08-04T00:04:27;27.70;97.20
29803;DHT22;16702;50.898;4.662;2022-08-04T00:07:07;27.70;97.40
29803;DHT22;16702;50.898;4.662;2022-08-04T00:09:49;27.60;97.50
29803;DHT22;16702;50.898;4.662;2022-08-04T00:12:21;27.70;97.50
29803;DHT22;16702;50.898;4.662;2022-08-04T00:15:02;27.60;97.50
29803;DHT22;16702;50.898;4.662;2022-08-04T00:17:38;27.60;97.60
29803;DHT22;16702;50.898;4.662;2022-08-04T00:20:11;27.60;97.70
29803;DHT22;16702;50.898;4.662;2022-08-04T00:22:45;27.50;97.70
29803;DHT22;16702;50.898;4.662;2022-08-04T00:25:18;27.50;97.80
29803;DHT22;16702;50.898;4.662;2022-08-04T00:27:49;27.50;98.00
29803;DHT22;16702;50.898;4.662;2022-08-04T00:30:20;27.40;97.90
29803;DHT22;16702;50.898;4.662;2022-08-04T00:32:51;27.40;98.00
29803;DHT22;16702;50.898;4.662;2022-08-04T00:35:22;27.30;97.90
29803;DHT22;16702;50.898;4.662;2022-08-04T00:37:54;27.30;98.00
29803;DHT22;16702;50.898;4.662;2022-08-04T00:40:37;27.20;98.00
29803;DHT22;16702;50.898;4.662;2022-08-04T00:43:16;27.20;97.80
29803;DHT22;16702;50.898;4.662;2022-08-04T00:46:07;27.20;97.80
29803;DHT22;16702;50.898;4.662;2022-08-04T00:49:03;27.10;97.80
29803;DHT22;16702;50.898;4.662;2022-08-04T00:51:47;27.10;97.80
29803;DHT22;16702;50.898;4.662;2022-08-04T00:54:41;27.10;97.90
29803;DHT22;16702;50.898;4.662;2022-08-04T00:57:30;27.00;97.90
29803;DHT22;16702;50.898;4.662;2022-08-04T01:00:08;27.00;98.00
29803;DHT22;16702;50.898;4.662;2022-08-04T01:02:55;27.00;98.10
29803;DHT22;16702;50.898;4.662;2022-08-04T01:05:36;27.00;98.10
29803;DHT22;16702;50.898;4.662;2022-08-04T01:08:38;26.90;98.30
29803;DHT22;16702;50.898;4.662;2022-08-04T01:11:26;26.80;98.40
29803;DHT22;16702;50.898;4.662;2022-08-04T01:14:41;26.90;98.50
29803;DHT22;16702;50.898;4.662;2022-08-04T01:17:20;26.80;98.40
29803;DHT22;16702;50.898;4.662;2022-08-04T01:19:59;26.80;98.60
29803;DHT22;16702;50.898;4.662;2022-08-04T01:23:15;26.70;98.60
29803;DHT22;16702;50.898;4.662;2022-08-04T01:26:10;26.70;98.60
29803;DHT22;16702;50.898;4.662;2022-08-04T01:29:09;26.70;98.70
29803;DHT22;16702;50.898;4.662;2022-08-04T01:31:51;26.60;98.70
29803;DHT22;16702;50.898;4.662;2022-08-04T01:34:26;26.60;98.80
29803;DHT22;16702;50.898;4.662;2022-08-04T01:36:59;26.50;98.70
29803;DHT22;16702;50.898;4.662;2022-08-04T01:39:35;26.50;98.70
29803;DHT22;16702;50.898;4.662;2022-08-04T01:42:11;26.50;98.90
29803;DHT22;16702;50.898;4.662;2022-08-04T01:45:03;26.50;98.90
29803;DHT22;16702;50.898;4.662;2022-08-04T01:47:35;26.40;98.90
29803;DHT22;16702;50.898;4.662;2022-08-04T01:50:07;26.50;98.90
29803;DHT22;16702;50.898;4.662;2022-08-04T01:52:40;26.40;99.00
29803;DHT22;16702;50.898;4.662;2022-08-04T01:55:17;26.40;99.00
29803;DHT22;16702;50.898;4.662;2022-08-04T01:57:49;26.40;99.50
29803;DHT22;16702;50.898;4.662;2022-08-04T02:00:26;26.40;99.50
29803;DHT22;16702;50.898;4.662;2022-08-04T02:02:57;26.40;99.60
29803;DHT22;16702;50.898;4.662;2022-08-04T02:05:27;26.30;99.60
29803;DHT22;16702;50.898;4.662;2022-08-04T02:08:21;26.30;99.80
29803;DHT22;16702;50.898;4.662;2022-08-04T02:11:03;26.30;99.90
29803;DHT22;16702;50.898;4.662;2022-08-04T02:13:46;26.30;99.90
29803;DHT22;16702;50.898;4.662;2022-08-04T02:16:28;26.30;99.90
29803;DHT22;16702;50.898;4.662;2022-08-04T02:19:11;26.30;99.90
29803;DHT22;16702;50.898;4.662;2022-08-04T02:21:47;26.30;99.90
29803;DHT22;16702;50.898;4.662;2022-08-04T02:24:24;26.20;99.90
29803;DHT22;16702;50.898;4.662;2022-08-04T02:26:57;26.20;99.90
29803;DHT22;16702;50.898;4.662;2022-08-04T02:29:34;26.20;99.90
29803;DHT22;16702;50.898;4.662;2022-08-04T02:32:17;26.10;99.90
29803;DHT22;16702;50.898;4.662;2022-08-04T02:34:54;26.10;99.90
29803;DHT22;16702;50.898;4.662;2022-08-04T02:37:28;26.10;99.90
29803;DHT22;16702;50.898;4.662;2022-08-04T02:40:02;26.10;99.90
29803;DHT22;16702;50.898;4.662;2022-08-04T02:42:33;26.00;99.90
29803;DHT22;16702;50.898;4.662;2022-08-04T02:45:06;26.00;99.90
29803;DHT22;16702;50.898;4.662;2022-08-04T02:47:41;26.00;99.90
29803;DHT22;16702;50.898;4.662;2022-08-04T02:50:34;26.00;99.90
29803;DHT22;16702;50.898;4.662;2022-08-04T02:53:07;26.00;99.90
29803;DHT22;16702;50.898;4.662;2022-08-04T02:55:41;26.00;99.90
29803;DHT22;16702;50.898;4.662;2022-08-04T02:58:20;26.00;99.90
29803;DHT22;16702;50.898;4.662;2022-08-04T03:00:50;26.00;99.90
29803;DHT22;16702;50.898;4.662;2022-08-04T03:03:32;26.00;99.90
29803;DHT22;16702;50.898;4.662;2022-08-04T03:06:21;26.00;99.90
29803;DHT22;16702;50.898;4.662;2022-08-04T03:09:10;25.90;99.90
29803;DHT22;16702;50.898;4.662;2022-08-04T03:15:24;25.90;99.90
29803;DHT22;16702;50.898;4.662;2022-08-04T03:18:36;25.90;99.90
29803;DHT22;16702;50.898;4.662;2022-08-04T03:24:44;25.70;99.90
29803;DHT22;16702;50.898;4.662;2022-08-04T03:27:40;25.70;99.90
29803;DHT22;16702;50.898;4.662;2022-08-04T03:30:18;25.70;99.90
29803;DHT22;16702;50.898;4.662;2022-08-04T03:45:34;25.60;99.90
29803;DHT22;16702;50.898;4.662;2022-08-04T03:48:26;25.60;99.90
29803;DHT22;16702;50.898;4.662;2022-08-04T03:51:16;25.60;99.90
29803;DHT22;16702;50.898;4.662;2022-08-04T03:54:38;25.60;99.90
29803;DHT22;16702;50.898;4.662;2022-08-04T03:57:40;25.60;99.90
29803;DHT22;16702;50.898;4.662;2022-08-04T04:00:13;25.50;99.90
29803;DHT22;16702;50.898;4.662;2022-08-04T04:06:37;25.50;99.90
29803;DHT22;16702;50.898;4.662;2022-08-04T04:09:45;25.40;99.90
29803;DHT22;16702;50.898;4.662;2022-08-04T04:18:42;25.40;99.90
29803;DHT22;16702;50.898;4.662;2022-08-04T04:21:27;25.30;99.90
29803;DHT22;16702;50.898;4.662;2022-08-04T04:24:17;25.30;99.90
29803;DHT22;16702;50.898;4.662;2022-08-04T04:27:07;25.30;99.90
29803;DHT22;16702;50.898;4.662;2022-08-04T04:32:49;25.30;99.90
29803;DHT22;16702;50.898;4.662;2022-08-04T04:35:31;25.20;99.90
29803;DHT22;16702;50.898;4.662;2022-08-04T04:38:33;25.20;99.90
29803;DHT22;16702;50.898;4.662;2022-08-04T04:41:26;25.20;99.90
29803;DHT22;16702;50.898;4.662;2022-08-04T04:47:10;25.20;99.90
29803;DHT22;16702;50.898;4.662;2022-08-04T04:50:08;25.20;99.90
29803;DHT22;16702;50.898;4.662;2022-08-04T04:52:48;25.20;99.90
29803;DHT22;16702;50.898;4.662;2022-08-04T04:55:26;25.20;99.90
29803;DHT22;16702;50.898;4.662;2022-08-04T04:57:59;25.20;99.90
29803;DHT22;16702;50.898;4.662;2022-08-04T05:00:39;25.10;99.90
29803;DHT22;16702;50.898;4.662;2022-08-04T05:03:29;25.20;99.90
29803;DHT22;16702;50.898;4.662;2022-08-04T05:06:23;25.20;99.90
29803;DHT22;16702;50.898;4.662;2022-08-04T05:09:21;25.20;99.90
29803;DHT22;16702;50.898;4.662;2022-08-04T05:12:25;25.10;99.90
29803;DHT22;16702;50.898;4.662;2022-08-04T05:15:24;25.10;99.90
29803;DHT22;16702;50.898;4.662;2022-08-04T05:17:58;25.10;99.90
29803;DHT22;16702;50.898;4.662;2022-08-04T05:20:43;25.00;99.90
29803;DHT22;16702;50.898;4.662;2022-08-04T05:23:16;25.00;99.90
29803;DHT22;16702;50.898;4.662;2022-08-04T05:25:51;25.00;99.90
29803;DHT22;16702;50.898;4.662;2022-08-04T05:28:33;25.00;99.90
29803;DHT22;16702;50.898;4.662;2022-08-04T05:31:09;25.00;99.90
29803;DHT22;16702;50.898;4.662;2022-08-04T05:33:46;25.00;99.90
29803;DHT22;16702;50.898;4.662;2022-08-04T05:36:18;24.90;99.90
29803;DHT22;16702;50.898;4.662;2022-08-04T05:39:10;24.90;99.90
29803;DHT22;16702;50.898;4.662;2022-08-04T05:41:42;25.00;99.90
29803;DHT22;16702;50.898;4.662;2022-08-04T05:44:25;25.00;99.90
29803;DHT22;16702;50.898;4.662;2022-08-04T05:46:57;24.90;99.90
29803;DHT22;16702;50.898;4.662;2022-08-04T05:49:28;24.90;99.90
29803;DHT22;16702;50.898;4.662;2022-08-04T05:52:01;24.90;99.90
29803;DHT22;16702;50.898;4.662;2022-08-04T05:54:33;24.90;99.90
29803;DHT22;16702;50.898;4.662;2022-08-04T05:57:05;24.80;99.90
29803;DHT22;16702;50.898;4.662;2022-08-04T05:59:40;24.70;99.90
29803;DHT22;16702;50.898;4.662;2022-08-04T06:02:16;24.70;99.90
29803;DHT22;16702;50.898;4.662;2022-08-04T06:04:49;24.70;99.90
29803;DHT22;16702;50.898;4.662;2022-08-04T06:07:20;24.80;99.90
29803;DHT22;16702;50.898;4.662;2022-08-04T06:09:52;24.80;99.90
29803;DHT22;16702;50.898;4.662;2022-08-04T06:12:25;24.80;99.90
29803;DHT22;16702;50.898;4.662;2022-08-04T06:14:59;24.80;99.90
29803;DHT22;16702;50.898;4.662;2022-08-04T06:17:32;24.70;99.90
29803;DHT22;16702;50.898;4.662;2022-08-04T06:20:27;24.80;99.90
29803;DHT22;16702;50.898;4.662;2022-08-04T06:23:03;24.90;99.90
29803;DHT22;16702;50.898;4.662;2022-08-04T06:25:40;24.90;99.90
29803;DHT22;16702;50.898;4.662;2022-08-04T06:28:12;24.90;99.90
29803;DHT22;16702;50.898;4.662;2022-08-04T06:30:47;24.90;99.90
29803;DHT22;16702;50.898;4.662;2022-08-04T06:33:20;24.90;99.90
29803;DHT22;16702;50.898;4.662;2022-08-04T06:36:23;24.90;99.90
29803;DHT22;16702;50.898;4.662;2022-08-04T06:38:54;24.80;99.90
29803;DHT22;16702;50.898;4.662;2022-08-04T06:41:25;24.80;99.90
29803;DHT22;16702;50.898;4.662;2022-08-04T06:43:59;24.90;99.90
29803;DHT22;16702;50.898;4.662;2022-08-04T06:46:37;24.90;99.90
29803;DHT22;16702;50.898;4.662;2022-08-04T06:49:07;25.00;99.90
29803;DHT22;16702;50.898;4.662;2022-08-04T06:51:39;25.00;99.90
29803;DHT22;16702;50.898;4.662;2022-08-04T06:54:15;25.10;99.90
29803;DHT22;16702;50.898;4.662;2022-08-04T06:56:47;25.20;99.90
29803;DHT22;16702;50.898;4.662;2022-08-04T06:59:20;25.20;99.90
29803;DHT22;16702;50.898;4.662;2022-08-04T07:01:55;25.00;99.90
29803;DHT22;16702;50.898;4.662;2022-08-04T07:04:26;25.10;99.90
29803;DHT22;16702;50.898;4.662;2022-08-04T07:06:56;25.20;99.90
29803;DHT22;16702;50.898;4.662;2022-08-04T07:09:27;25.30;99.90
29803;DHT22;16702;50.898;4.662;2022-08-04T07:11:58;25.30;99.90
29803;DHT22;16702;50.898;4.662;2022-08-04T07:14:30;25.20;99.90
29803;DHT22;16702;50.898;4.662;2022-08-04T07:17:06;25.30;99.90
29803;DHT22;16702;50.898;4.662;2022-08-04T07:19:37;25.30;99.90
29803;DHT22;16702;50.898;4.662;2022-08-04T07:22:08;25.30;99.90
29803;DHT22;16702;50.898;4.662;2022-08-04T07:24:54;25.50;99.90
29803;DHT22;16702;50.898;4.662;2022-08-04T07:27:27;25.40;99.90
29803;DHT22;16702;50.898;4.662;2022-08-04T07:30:15;25.50;99.90
29803;DHT22;16702;50.898;4.662;2022-08-04T07:32:53;25.50;99.90
29803;DHT22;16702;50.898;4.662;2022-08-04T07:35:26;25.50;99.90
29803;DHT22;16702;50.898;4.662;2022-08-04T07:38:17;25.50;99.90
29803;DHT22;16702;50.898;4.662;2022-08-04T07:40:54;25.60;99.90
29803;DHT22;16702;50.898;4.662;2022-08-04T07:43:24;25.50;99.90
29803;DHT22;16702;50.898;4.662;2022-08-04T07:45:57;25.40;99.90
29803;DHT22;16702;50.898;4.662;2022-08-04T07:48:31;25.50;99.90
29803;DHT22;16702;50.898;4.662;2022-08-04T07:51:03;25.40;99.90
29803;DHT22;16702;50.898;4.662;2022-08-04T07:53:34;25.60;99.90
29803;DHT22;16702;50.898;4.662;2022-08-04T07:56:22;25.50;99.90
29803;DHT22;16702;50.898;4.662;2022-08-04T07:58:52;25.40;99.90
29803;DHT22;16702;50.898;4.662;2022-08-04T08:01:23;25.50;99.90
29803;DHT22;16702;50.898;4.662;2022-08-04T08:03:57;25.60;99.90
29803;DHT22;16702;50.898;4.662;2022-08-04T08:06:33;25.40;99.90
29803;DHT22;16702;50.898;4.662;2022-08-04T08:09:11;25.50;99.90
29803;DHT22;16702;50.898;4.662;2022-08-04T08:11:43;25.50;99.90
29803;DHT22;16702;50.898;4.662;2022-08-04T08:14:37;25.60;99.90
29803;DHT22;16702;50.898;4.662;2022-08-04T08:17:08;25.70;99.90
29803;DHT22;16702;50.898;4.662;2022-08-04T08:19:41;25.70;99.90
29803;DHT22;16702;50.898;4.662;2022-08-04T08:22:14;25.70;99.90
29803;DHT22;16702;50.898;4.662;2022-08-04T08:24:45;25.70;99.90
29803;DHT22;16702;50.898;4.662;2022-08-04T08:27:15;25.80;99.90
29803;DHT22;16702;50.898;4.662;2022-08-04T08:29:47;25.70;99.90
29803;DHT22;16702;50.898;4.662;2022-08-04T08:32:17;25.70;99.90
29803;DHT22;16702;50.898;4.662;2022-08-04T08:34:51;25.70;99.90
29803;DHT22;16702;50.898;4.662;2022-08-04T08:37:31;25.70;99.90
29803;DHT22;16702;50.898;4.662;2022-08-04T08:40:20;25.50;99.90
29803;DHT22;16702;50.898;4.662;2022-08-04T08:43:18;25.60;99.90
29803;DHT22;16702;50.898;4.662;2022-08-04T08:46:40;25.70;99.90
29803;DHT22;16702;50.898;4.662;2022-08-04T08:49:45;25.70;99.90
29803;DHT22;16702;50.898;4.662;2022-08-04T08:52:43;25.80;99.90
29803;DHT22;16702;50.898;4.662;2022-08-04T08:55:40;25.70;99.90
29803;DHT22;16702;50.898;4.662;2022-08-04T09:01:24;25.70;99.90
29803;DHT22;16702;50.898;4.662;2022-08-04T09:07:25;25.70;99.90
29803;DHT22;16702;50.898;4.662;2022-08-04T09:10:15;25.70;99.90
29803;DHT22;16702;50.898;4.662;2022-08-04T09:12:50;25.60;99.90
29803;DHT22;16702;50.898;4.662;2022-08-04T09:15:29;25.50;99.90
29803;DHT22;16702;50.898;4.662;2022-08-04T09:18:06;25.50;99.90
29803;DHT22;16702;50.898;4.662;2022-08-04T09:20:44;25.60;99.90
29803;DHT22;16702;50.898;4.662;2022-08-04T09:23:19;25.60;99.90
29803;DHT22;16702;50.898;4.662;2022-08-04T09:26:00;25.50;99.90
29803;DHT22;16702;50.898;4.662;2022-08-04T09:28:42;25.50;99.90
29803;DHT22;16702;50.898;4.662;2022-08-04T09:31:23;25.50;99.90
29803;DHT22;16702;50.898;4.662;2022-08-04T09:34:42;25.50;99.90
29803;DHT22;16702;50.898;4.662;2022-08-04T09:37:36;25.40;99.90
29803;DHT22;16702;50.898;4.662;2022-08-04T09:40:19;25.40;99.90
29803;DHT22;16702;50.898;4.662;2022-08-04T09:43:27;25.30;99.90
29803;DHT22;16702;50.898;4.662;2022-08-04T09:46:24;25.20;99.90
29803;DHT22;16702;50.898;4.662;2022-08-04T09:48:58;25.30;99.90
29803;DHT22;16702;50.898;4.662;2022-08-04T09:51:42;25.40;99.90
29803;DHT22;16702;50.898;4.662;2022-08-04T09:54:28;25.50;99.90
29803;DHT22;16702;50.898;4.662;2022-08-04T09:57:09;25.40;99.90
29803;DHT22;16702;50.898;4.662;2022-08-04T09:59:53;25.40;99.90
29803;DHT22;16702;50.898;4.662;2022-08-04T10:02:30;25.50;99.90
29803;DHT22;16702;50.898;4.662;2022-08-04T10:05:04;25.50;99.90
29803;DHT22;16702;50.898;4.662;2022-08-04T10:07:47;25.70;99.90
29803;DHT22;16702;50.898;4.662;2022-08-04T10:10:50;25.70;99.90
29803;DHT22;16702;50.898;4.662;2022-08-04T10:13:28;25.70;99.90
29803;DHT22;16702;50.898;4.662;2022-08-04T10:16:32;25.80;99.90
29803;DHT22;16702;50.898;4.662;2022-08-04T10:19:13;26.00;99.90
29803;DHT22;16702;50.898;4.662;2022-08-04T10:21:54;26.20;99.90
29803;DHT22;16702;50.898;4.662;2022-08-04T10:24:52;26.30;99.90
29803;DHT22;16702;50.898;4.662;2022-08-04T10:27:28;26.50;99.90
29803;DHT22;16702;50.898;4.662;2022-08-04T10:30:03;26.60;99.90
29803;DHT22;16702;50.898;4.662;2022-08-04T10:32:49;26.50;99.90
29803;DHT22;16702;50.898;4.662;2022-08-04T10:35:25;26.40;99.90
29803;DHT22;16702;50.898;4.662;2022-08-04T10:38:03;26.30;99.90
29803;DHT22;16702;50.898;4.662;2022-08-04T10:40:40;26.30;99.90
29803;DHT22;16702;50.898;4.662;2022-08-04T10:43:20;26.30;99.90
29803;DHT22;16702;50.898;4.662;2022-08-04T10:46:03;26.20;99.90
29803;DHT22;16702;50.898;4.662;2022-08-04T10:48:42;26.10;99.90
29803;DHT22;16702;50.898;4.662;2022-08-04T10:51:23;26.20;99.90
29803;DHT22;16702;50.898;4.662;2022-08-04T10:53:58;26.20;99.90
29803;DHT22;16702;50.898;4.662;2022-08-04T10:56:34;26.30;99.90
29803;DHT22;16702;50.898;4.662;2022-08-04T10:59:11;26.30;99.90
29803;DHT22;16702;50.898;4.662;2022-08-04T11:01:47;26.40;99.90
29803;DHT22;16702;50.898;4.662;2022-08-04T11:04:46;26.30;99.90
29803;DHT22;16702;50.898;4.662;2022-08-04T11:07:17;26.30;99.90
29803;DHT22;16702;50.898;4.662;2022-08-04T11:09:49;26.40;99.90
29803;DHT22;16702;50.898;4.662;2022-08-04T11:12:23;26.30;99.90
29803;DHT22;16702;50.898;4.662;2022-08-04T11:14:58;26.60;99.90
29803;DHT22;16702;50.898;4.662;2022-08-04T11:17:36;26.80;99.90
29803;DHT22;16702;50.898;4.662;2022-08-04T11:20:15;26.80;99.90
29803;DHT22;16702;50.898;4.662;2022-08-04T11:23:07;26.60;99.90
29803;DHT22;16702;50.898;4.662;2022-08-04T11:25:49;26.60;99.90
29803;DHT22;16702;50.898;4.662;2022-08-04T11:28:27;26.80;99.90
29803;DHT22;16702;50.898;4.662;2022-08-04T11:31:04;26.70;99.90
29803;DHT22;16702;50.898;4.662;2022-08-04T11:33:43;26.70;99.90
29803;DHT22;16702;50.898;4.662;2022-08-04T11:36:21;26.60;99.90
29803;DHT22;16702;50.898;4.662;2022-08-04T11:38:58;26.90;99.90
29803;DHT22;16702;50.898;4.662;2022-08-04T11:41:39;27.00;99.90
29803;DHT22;16702;50.898;4.662;2022-08-04T11:44:17;26.90;99.90
29803;DHT22;16702;50.898;4.662;2022-08-04T11:46:50;27.00;99.90
29803;DHT22;16702;50.898;4.662;2022-08-04T11:49:28;26.90;99.90
29803;DHT22;16702;50.898;4.662;2022-08-04T11:52:23;26.90;99.90
29803;DHT22;16702;50.898;4.662;2022-08-04T11:54:57;26.80;99.90
29803;DHT22;16702;50.898;4.662;2022-08-04T11:57:28;26.70;99.90
29803;DHT22;16702;50.898;4.662;2022-08-04T12:00:05;26.80;99.90
29803;DHT22;16702;50.898;4.662;2022-08-04T12:03:23;26.80;99.90
29803;DHT22;16702;50.898;4.662;2022-08-04T12:06:08;26.90;99.90
29803;DHT22;16702;50.898;4.662;2022-08-04T12:09:06;27.00;99.90
29803;DHT22;16702;50.898;4.662;2022-08-04T12:11:50;26.90;99.90
29803;DHT22;16702;50.898;4.662;2022-08-04T12:14:28;26.90;99.90
29803;DHT22;16702;50.898;4.662;2022-08-04T12:17:03;26.80;99.90
29803;DHT22;16702;50.898;4.662;2022-08-04T12:19:40;27.10;99.90
29803;DHT22;16702;50.898;4.662;2022-08-04T12:22:35;27.20;99.90
29803;DHT22;16702;50.898;4.662;2022-08-04T12:25:15;27.10;99.90
29803;DHT22;16702;50.898;4.662;2022-08-04T12:27:50;27.20;99.90
29803;DHT22;16702;50.898;4.662;2022-08-04T12:30:23;27.30;99.90
29803;DHT22;16702;50.898;4.662;2022-08-04T12:33:19;27.60;99.90
29803;DHT22;16702;50.898;4.662;2022-08-04T12:36:21;27.70;99.90
29803;DHT22;16702;50.898;4.662;2022-08-04T12:39:00;28.00;99.90
29803;DHT22;16702;50.898;4.662;2022-08-04T12:41:39;27.70;99.90
29803;DHT22;16702;50.898;4.662;2022-08-04T12:44:12;27.80;99.90
29803;DHT22;16702;50.898;4.662;2022-08-04T12:47:05;28.10;99.90
29803;DHT22;16702;50.898;4.662;2022-08-04T12:49:59;28.10;99.90
29803;DHT22;16702;50.898;4.662;2022-08-04T12:52:32;28.10;99.90
29803;DHT22;16702;50.898;4.662;2022-08-04T12:55:32;28.20;99.90
29803;DHT22;16702;50.898;4.662;2022-08-04T12:58:12;28.20;99.90
29803;DHT22;16702;50.898;4.662;2022-08-04T13:01:06;28.30;99.90
29803;DHT22;16702;50.898;4.662;2022-08-04T13:03:59;28.60;99.90
29803;DHT22;16702;50.898;4.662;2022-08-04T13:06:32;28.60;99.90
29803;DHT22;16702;50.898;4.662;2022-08-04T13:09:06;28.70;99.90
29803;DHT22;16702;50.898;4.662;2022-08-04T13:11:48;28.40;99.90
29803;DHT22;16702;50.898;4.662;2022-08-04T13:14:24;28.80;99.90
29803;DHT22;16702;50.898;4.662;2022-08-04T13:16:58;29.00;99.90
29803;DHT22;16702;50.898;4.662;2022-08-04T13:19:31;29.20;99.90
29803;DHT22;16702;50.898;4.662;2022-08-04T13:22:08;29.30;99.90
29803;DHT22;16702;50.898;4.662;2022-08-04T13:24:42;29.30;99.90
29803;DHT22;16702;50.898;4.662;2022-08-04T13:27:37;28.90;99.90
29803;DHT22;16702;50.898;4.662;2022-08-04T13:30:19;28.80;99.90
29803;DHT22;16702;50.898;4.662;2022-08-04T13:32:58;28.80;99.90
29803;DHT22;16702;50.898;4.662;2022-08-04T13:35:33;28.80;99.90
29803;DHT22;16702;50.898;4.662;2022-08-04T13:38:24;29.10;99.90
29803;DHT22;16702;50.898;4.662;2022-08-04T13:40:55;29.20;99.90
29803;DHT22;16702;50.898;4.662;2022-08-04T13:43:28;29.30;99.90
29803;DHT22;16702;50.898;4.662;2022-08-04T13:46:25;29.20;99.90
29803;DHT22;16702;50.898;4.662;2022-08-04T13:49:01;29.30;99.90
29803;DHT22;16702;50.898;4.662;2022-08-04T13:51:58;29.40;99.90
29803;DHT22;16702;50.898;4.662;2022-08-04T13:54:39;29.40;99.90
29803;DHT22;16702;50.898;4.662;2022-08-04T13:57:12;29.50;99.90
29803;DHT22;16702;50.898;4.662;2022-08-04T13:59:49;29.50;99.90
29803;DHT22;16702;50.898;4.662;2022-08-04T14:02:33;29.60;99.90
29803;DHT22;16702;50.898;4.662;2022-08-04T14:05:08;29.70;99.90
29803;DHT22;16702;50.898;4.662;2022-08-04T14:07:46;29.60;99.90
29803;DHT22;16702;50.898;4.662;2022-08-04T14:10:20;29.70;99.90
29803;DHT22;16702;50.898;4.662;2022-08-04T14:12:52;29.40;99.90
29803;DHT22;16702;50.898;4.662;2022-08-04T14:15:30;29.50;99.90
29803;DHT22;16702;50.898;4.662;2022-08-04T14:18:25;29.80;99.90
29803;DHT22;16702;50.898;4.662;2022-08-04T14:21:01;30.00;99.80
29803;DHT22;16702;50.898;4.662;2022-08-04T14:23:46;30.30;99.90
29803;DHT22;16702;50.898;4.662;2022-08-04T14:26:20;30.10;99.60
29803;DHT22;16702;50.898;4.662;2022-08-04T14:29:08;29.80;99.70
29803;DHT22;16702;50.898;4.662;2022-08-04T14:32:02;29.80;99.90
29803;DHT22;16702;50.898;4.662;2022-08-04T14:34:44;29.80;99.70
29803;DHT22;16702;50.898;4.662;2022-08-04T14:37:16;29.90;99.90
29803;DHT22;16702;50.898;4.662;2022-08-04T14:39:50;30.10;99.90
29803;DHT22;16702;50.898;4.662;2022-08-04T14:42:44;30.20;99.90
29803;DHT22;16702;50.898;4.662;2022-08-04T14:45:29;30.30;99.50
29803;DHT22;16702;50.898;4.662;2022-08-04T14:48:00;30.50;98.90
29803;DHT22;16702;50.898;4.662;2022-08-04T14:50:39;30.70;98.60
29803;DHT22;16702;50.898;4.662;2022-08-04T14:53:11;30.60;98.60
29803;DHT22;16702;50.898;4.662;2022-08-04T14:55:44;30.90;98.70
29803;DHT22;16702;50.898;4.662;2022-08-04T14:58:20;30.90;98.30
29803;DHT22;16702;50.898;4.662;2022-08-04T15:01:06;31.00;98.00
29803;DHT22;16702;50.898;4.662;2022-08-04T15:03:42;30.80;97.80
29803;DHT22;16702;50.898;4.662;2022-08-04T15:06:22;30.90;97.70
29803;DHT22;16702;50.898;4.662;2022-08-04T15:08:54;31.10;97.50
29803;DHT22;16702;50.898;4.662;2022-08-04T15:11:25;31.20;96.80
29803;DHT22;16702;50.898;4.662;2022-08-04T15:13:56;31.20;96.80
29803;DHT22;16702;50.898;4.662;2022-08-04T15:16:29;31.30;96.70
29803;DHT22;16702;50.898;4.662;2022-08-04T15:19:00;30.90;96.00
29803;DHT22;16702;50.898;4.662;2022-08-04T15:21:33;31.10;96.20
29803;DHT22;16702;50.898;4.662;2022-08-04T15:24:06;30.80;97.00
29803;DHT22;16702;50.898;4.662;2022-08-04T15:26:40;31.10;96.50
29803;DHT22;16702;50.898;4.662;2022-08-04T15:29:16;31.00;96.20
29803;DHT22;16702;50.898;4.662;2022-08-04T15:31:49;31.10;96.40
29803;DHT22;16702;50.898;4.662;2022-08-04T15:34:45;31.20;96.60
29803;DHT22;16702;50.898;4.662;2022-08-04T15:37:26;31.10;96.20
29803;DHT22;16702;50.898;4.662;2022-08-04T15:39:59;31.20;96.30
29803;DHT22;16702;50.898;4.662;2022-08-04T15:42:40;31.10;95.90
29803;DHT22;16702;50.898;4.662;2022-08-04T15:45:21;31.20;96.40
29803;DHT22;16702;50.898;4.662;2022-08-04T15:48:33;31.40;95.60
29803;DHT22;16702;50.898;4.662;2022-08-04T15:51:12;31.50;95.90
29803;DHT22;16702;50.898;4.662;2022-08-04T15:54:22;31.30;95.40
29803;DHT22;16702;50.898;4.662;2022-08-04T15:56:59;30.90;96.10
29803;DHT22;16702;50.898;4.662;2022-08-04T15:59:57;31.10;96.20
29803;DHT22;16702;50.898;4.662;2022-08-04T16:02:40;31.10;96.10
29803;DHT22;16702;50.898;4.662;2022-08-04T16:05:35;31.10;96.10
29803;DHT22;16702;50.898;4.662;2022-08-04T16:08:10;31.10;95.90
29803;DHT22;16702;50.898;4.662;2022-08-04T16:10:47;31.30;96.10
29803;DHT22;16702;50.898;4.662;2022-08-04T16:13:19;31.40;95.90
29803;DHT22;16702;50.898;4.662;2022-08-04T16:15:53;31.30;95.90
29803;DHT22;16702;50.898;4.662;2022-08-04T16:18:37;31.10;96.40
29803;DHT22;16702;50.898;4.662;2022-08-04T16:21:18;31.10;96.70
29803;DHT22;16702;50.898;4.662;2022-08-04T16:24:14;31.00;96.60
29803;DHT22;16702;50.898;4.662;2022-08-04T16:26:50;30.90;97.00
29803;DHT22;16702;50.898;4.662;2022-08-04T16:29:33;30.70;96.30
29803;DHT22;16702;50.898;4.662;2022-08-04T16:32:16;30.80;96.30
29803;DHT22;16702;50.898;4.662;2022-08-04T16:34:50;30.90;96.20
29803;DHT22;16702;50.898;4.662;2022-08-04T16:37:29;30.70;96.60
29803;DHT22;16702;50.898;4.662;2022-08-04T16:40:28;30.80;96.90
29803;DHT22;16702;50.898;4.662;2022-08-04T16:43:08;30.80;97.00
29803;DHT22;16702;50.898;4.662;2022-08-04T16:45:55;30.70;96.70
29803;DHT22;16702;50.898;4.662;2022-08-04T16:48:29;30.70;96.20
29803;DHT22;16702;50.898;4.662;2022-08-04T16:51:01;30.70;96.30
29803;DHT22;16702;50.898;4.662;2022-08-04T16:53:35;30.60;96.30
29803;DHT22;16702;50.898;4.662;2022-08-04T16:56:30;30.60;96.40
29803;DHT22;16702;50.898;4.662;2022-08-04T16:59:09;30.40;96.20
29803;DHT22;16702;50.898;4.662;2022-08-04T17:01:45;30.40;96.20
29803;DHT22;16702;50.898;4.662;2022-08-04T17:04:16;30.20;96.40
29803;DHT22;16702;50.898;4.662;2022-08-04T17:06:46;30.30;96.30
29803;DHT22;16702;50.898;4.662;2022-08-04T17:09:18;30.30;96.40
29803;DHT22;16702;50.898;4.662;2022-08-04T17:11:55;30.40;96.00
29803;DHT22;16702;50.898;4.662;2022-08-04T17:14:34;30.30;95.60
29803;DHT22;16702;50.898;4.662;2022-08-04T17:17:04;30.40;95.90
29803;DHT22;16702;50.898;4.662;2022-08-04T17:19:35;30.20;95.80
29803;DHT22;16702;50.898;4.662;2022-08-04T17:22:08;30.20;95.90
29803;DHT22;16702;50.898;4.662;2022-08-04T17:24:39;30.10;95.80
29803;DHT22;16702;50.898;4.662;2022-08-04T17:27:10;30.00;96.20
29803;DHT22;16702;50.898;4.662;2022-08-04T17:30:07;30.00;96.30
29803;DHT22;16702;50.898;4.662;2022-08-04T17:32:54;30.00;96.00
29803;DHT22;16702;50.898;4.662;2022-08-04T17:35:24;29.80;96.30
29803;DHT22;16702;50.898;4.662;2022-08-04T17:38:07;29.80;96.50